createdAt,value
2018-06-25T00:01:10.282Z,11.36
2018-06-25T00:02:53.924Z,11.32
2018-06-25T00:04:31.398Z,11.30
2018-06-25T00:06:08.473Z,11.29
2018-06-25T00:07:45.364Z,11.34
2018-06-25T00:09:21.429Z,11.32
2018-06-25T00:10:57.963Z,11.41
2018-06-25T00:12:34.408Z,11.43
2018-06-25T00:14:09.868Z,11.39
2018-06-25T00:15:47.473Z,11.36
2018-06-25T00:17:29.354Z,11.37
2018-06-25T00:19:08.268Z,11.43
2018-06-25T00:20:46.736Z,11.42
2018-06-25T00:22:23.381Z,11.37
2018-06-25T00:24:32.436Z,11.41
2018-06-25T00:27:50.101Z,11.45
2018-06-25T00:29:28.535Z,11.45
2018-06-25T00:31:09.206Z,11.31
2018-06-25T00:32:53.569Z,11.27
2018-06-25T00:34:34.443Z,11.32
2018-06-25T00:36:12.207Z,11.29
2018-06-25T00:37:48.169Z,11.26
2018-06-25T00:39:25.132Z,11.31
2018-06-25T00:41:01.096Z,11.26
2018-06-25T00:42:36.560Z,11.26
2018-06-25T00:44:11.947Z,11.31
2018-06-25T00:45:48.120Z,11.29
2018-06-25T00:47:23.864Z,11.34
2018-06-25T00:49:00.331Z,11.36
2018-06-25T00:50:35.351Z,11.32
2018-06-25T00:52:12.272Z,11.33
2018-06-25T00:53:48.057Z,11.33
2018-06-25T00:55:23.436Z,11.35
2018-06-25T00:56:59.626Z,11.38
2018-06-25T00:58:45.814Z,11.39
2018-06-25T01:00:21.381Z,11.32
2018-06-25T01:01:57.286Z,11.33
2018-06-25T01:03:32.382Z,11.30
2018-06-25T01:05:08.716Z,11.33
2018-06-25T01:06:44.660Z,11.39
2018-06-25T01:08:20.790Z,11.34
2018-06-25T01:09:55.960Z,11.35
2018-06-25T01:11:30.920Z,11.28
2018-06-25T01:13:06.691Z,11.27
2018-06-25T01:14:41.774Z,11.28
2018-06-25T01:16:17.753Z,11.24
2018-06-25T01:17:52.852Z,11.30
2018-06-25T01:19:29.006Z,11.27
2018-06-25T01:21:04.734Z,11.26
2018-06-25T01:22:40.260Z,11.31
2018-06-25T01:24:15.782Z,11.27
2018-06-25T01:25:51.636Z,11.30
2018-06-25T01:27:26.881Z,11.24
2018-06-25T01:29:02.905Z,11.21
2018-06-25T01:30:38.161Z,11.29
2018-06-25T01:32:14.401Z,11.29
2018-06-25T01:33:49.991Z,11.29
2018-06-25T01:35:25.845Z,11.37
2018-06-25T01:37:02.413Z,11.36
2018-06-25T01:38:39.066Z,11.32
2018-06-25T01:40:14.948Z,11.37
2018-06-25T01:41:50.314Z,11.36
2018-06-25T01:43:25.462Z,11.31
2018-06-25T01:45:03.381Z,11.27
2018-06-25T01:46:39.045Z,11.25
2018-06-25T01:48:15.366Z,11.24
2018-06-25T01:49:50.519Z,11.23
2018-06-25T01:51:28.042Z,11.23
2018-06-25T01:53:03.621Z,11.29
2018-06-25T01:54:39.472Z,11.32
2018-06-25T01:56:17.223Z,11.35
2018-06-25T01:57:53.271Z,11.33
2018-06-25T01:59:29.089Z,11.24
2018-06-25T02:01:04.777Z,11.27
2018-06-25T02:02:40.779Z,11.31
2018-06-25T02:04:15.853Z,11.29
2018-06-25T02:05:51.211Z,11.28
2018-06-25T02:07:28.609Z,11.30
2018-06-25T02:09:04.157Z,11.26
2018-06-25T02:10:39.465Z,11.25
2018-06-25T02:13:56.451Z,11.35
2018-06-25T02:15:32.207Z,11.29
2018-06-25T02:17:07.595Z,11.28
2018-06-25T02:18:42.555Z,11.24
2018-06-25T02:20:18.393Z,11.21
2018-06-25T02:21:53.559Z,11.16
2018-06-25T02:23:29.354Z,11.19
2018-06-25T02:25:04.804Z,11.18
2018-06-25T02:26:39.908Z,11.18
2018-06-25T02:28:15.008Z,11.20
2018-06-25T02:29:50.619Z,11.25
2018-06-25T02:31:26.427Z,11.25
2018-06-25T02:33:02.491Z,11.26
2018-06-25T02:34:37.422Z,11.24
2018-06-25T02:36:12.695Z,11.26
2018-06-25T02:37:47.573Z,11.28
2018-06-25T02:39:23.205Z,11.22
2018-06-25T02:40:58.256Z,11.14
2018-06-25T02:42:34.261Z,11.20
2018-06-25T02:44:13.853Z,11.14
2018-06-25T02:45:50.235Z,11.19
2018-06-25T02:47:27.678Z,11.21
2018-06-25T02:49:06.093Z,11.17
2018-06-25T02:50:42.996Z,11.20
2018-06-25T02:52:19.917Z,11.18
2018-06-25T02:53:56.978Z,11.20
2018-06-25T02:55:33.305Z,11.18
2018-06-25T02:57:08.685Z,11.16
2018-06-25T02:58:46.235Z,11.18
2018-06-25T03:00:22.373Z,11.19
2018-06-25T03:01:57.534Z,11.22
2018-06-25T03:03:37.894Z,11.12
2018-06-25T03:05:13.061Z,11.11
2018-06-25T03:06:48.184Z,11.14
2018-06-25T03:08:23.942Z,11.09
2018-06-25T03:10:00.161Z,11.11
2018-06-25T03:11:35.700Z,11.13
2018-06-25T03:13:11.088Z,11.16
2018-06-25T03:14:46.707Z,11.21
2018-06-25T03:16:21.591Z,11.20
2018-06-25T03:17:57.100Z,11.24
2018-06-25T03:19:32.114Z,11.22
2018-06-25T03:21:07.439Z,11.21
2018-06-25T03:22:42.276Z,11.21
2018-06-25T03:24:17.170Z,11.19
2018-06-25T03:25:53.690Z,11.20
2018-06-25T03:27:28.923Z,11.19
2018-06-25T03:29:04.195Z,11.20
2018-06-25T03:30:39.121Z,11.17
2018-06-25T03:32:14.647Z,11.16
2018-06-25T03:33:49.973Z,11.17
2018-06-25T03:35:25.199Z,11.23
2018-06-25T03:37:00.456Z,11.17
2018-06-25T03:38:35.294Z,11.19
2018-06-25T03:40:10.593Z,11.19
2018-06-25T03:41:49.566Z,11.24
2018-06-25T03:43:25.154Z,11.32
2018-06-25T03:45:00.230Z,11.26
2018-06-25T03:46:36.172Z,11.20
2018-06-25T03:48:12.276Z,11.24
2018-06-25T03:49:48.304Z,11.25
2018-06-25T03:51:23.663Z,11.21
2018-06-25T03:52:59.561Z,11.19
2018-06-25T03:54:35.492Z,11.21
2018-06-25T03:56:10.459Z,11.23
2018-06-25T03:57:45.942Z,11.23
2018-06-25T03:59:20.924Z,11.29
2018-06-25T04:00:59.392Z,11.32
2018-06-25T04:02:35.363Z,11.36
2018-06-25T04:04:12.651Z,11.31
2018-06-25T04:05:49.433Z,11.33
2018-06-25T04:07:26.427Z,11.34
2018-06-25T04:09:01.313Z,11.36
2018-06-25T04:10:37.340Z,11.38
2018-06-25T04:12:12.511Z,11.43
2018-06-25T04:13:47.773Z,11.45
2018-06-25T04:15:22.908Z,11.45
2018-06-25T04:16:58.270Z,11.38
2018-06-25T04:18:34.137Z,11.41
2018-06-25T04:20:10.785Z,11.34
2018-06-25T04:21:45.855Z,11.40
2018-06-25T04:23:20.765Z,11.45
2018-06-25T04:24:57.441Z,11.46
2018-06-25T04:26:34.936Z,11.37
2018-06-25T04:28:10.925Z,11.39
2018-06-25T04:29:45.908Z,11.28
2018-06-25T04:31:21.001Z,11.29
2018-06-25T04:32:56.783Z,11.31
2018-06-25T04:34:32.035Z,11.32
2018-06-25T04:36:07.090Z,11.31
2018-06-25T04:37:42.557Z,11.31
2018-06-25T04:39:19.149Z,11.30
2018-06-25T04:40:56.760Z,11.28
2018-06-25T04:42:44.089Z,11.34
2018-06-25T04:44:21.153Z,11.24
2018-06-25T04:45:56.296Z,11.26
2018-06-25T04:47:32.323Z,11.23
2018-06-25T04:49:07.552Z,11.19
2018-06-25T04:50:42.828Z,11.18
2018-06-25T04:52:18.093Z,11.18
2018-06-25T04:53:53.100Z,11.19
2018-06-25T04:55:28.505Z,11.22
2018-06-25T04:57:03.529Z,11.27
2018-06-25T04:58:38.779Z,11.17
2018-06-25T05:00:15.986Z,11.20
2018-06-25T05:01:51.165Z,11.16
2018-06-25T05:03:26.784Z,11.13
2018-06-25T05:05:01.714Z,11.11
2018-06-25T05:06:36.702Z,11.09
2018-06-25T05:08:12.660Z,11.17
2018-06-25T05:09:48.041Z,11.13
2018-06-25T05:11:29.565Z,11.09
2018-06-25T05:13:04.481Z,11.10
2018-06-25T05:14:41.078Z,11.17
2018-06-25T05:16:16.986Z,11.09
2018-06-25T05:17:52.163Z,11.16
2018-06-25T05:19:27.194Z,11.15
2018-06-25T05:21:02.420Z,11.20
2018-06-25T05:22:38.869Z,11.17
2018-06-25T05:24:14.992Z,11.22
2018-06-25T05:25:49.887Z,11.31
2018-06-25T05:27:26.888Z,11.37
2018-06-25T05:29:03.651Z,11.29
2018-06-25T05:30:38.808Z,11.25
2018-06-25T05:32:14.449Z,11.25
2018-06-25T05:33:49.508Z,11.26
2018-06-25T05:35:27.219Z,11.32
2018-06-25T05:37:02.316Z,11.52
2018-06-25T05:38:37.171Z,11.55
2018-06-25T05:40:12.524Z,11.63
2018-06-25T05:41:48.106Z,11.33
2018-06-25T05:43:23.992Z,11.40
2018-06-25T05:44:58.959Z,11.40
2018-06-25T05:46:34.408Z,11.48
2018-06-25T05:48:10.181Z,11.57
2018-06-25T05:49:45.386Z,11.49
2018-06-25T05:51:21.869Z,11.56
2018-06-25T05:52:56.889Z,11.53
2018-06-25T05:54:31.972Z,11.42
2018-06-25T05:56:08.174Z,11.45
2018-06-25T05:57:43.167Z,11.47
2018-06-25T05:59:18.215Z,11.46
2018-06-25T06:00:56.263Z,11.49
2018-06-25T06:02:31.908Z,11.60
2018-06-25T06:04:07.391Z,11.61
2018-06-25T06:05:42.466Z,11.60
2018-06-25T06:07:17.631Z,11.56
2018-06-25T06:08:53.638Z,11.59
2018-06-25T06:10:29.107Z,11.64
2018-06-25T06:12:04.266Z,11.67
2018-06-25T06:13:39.330Z,11.59
2018-06-25T06:15:17.077Z,11.59
2018-06-25T06:16:52.355Z,11.68
2018-06-25T06:18:28.366Z,11.75
2018-06-25T06:20:03.407Z,11.82
2018-06-25T06:21:38.291Z,11.67
2018-06-25T06:23:13.367Z,11.82
2018-06-25T06:24:48.229Z,11.85
2018-06-25T06:26:23.677Z,11.94
2018-06-25T06:27:58.926Z,11.98
2018-06-25T06:29:34.304Z,12.14
2018-06-25T06:31:09.371Z,12.15
2018-06-25T06:32:44.891Z,12.23
2018-06-25T06:34:20.272Z,12.13
2018-06-25T06:35:55.555Z,12.26
2018-06-25T06:37:30.713Z,12.17
2018-06-25T06:39:08.842Z,12.09
2018-06-25T06:40:44.252Z,12.09
2018-06-25T06:42:19.499Z,12.18
2018-06-25T06:43:54.744Z,12.25
2018-06-25T06:45:30.915Z,12.16
2018-06-25T06:47:05.951Z,12.23
2018-06-25T06:48:42.500Z,12.26
2018-06-25T06:50:18.384Z,12.31
2018-06-25T06:51:56.323Z,12.27
2018-06-25T06:53:32.987Z,12.31
2018-06-25T06:55:10.419Z,12.31
2018-06-25T06:56:45.889Z,12.33
2018-06-25T06:58:21.375Z,12.26
2018-06-25T06:59:56.297Z,12.24
2018-06-25T07:01:35.480Z,12.31
2018-06-25T07:03:10.892Z,12.49
2018-06-25T07:04:45.760Z,12.50
2018-06-25T07:06:23.031Z,12.61
2018-06-25T07:07:58.664Z,12.76
2018-06-25T07:09:34.029Z,12.75
2018-06-25T07:11:12.027Z,12.84
2018-06-25T07:12:48.382Z,12.86
2018-06-25T07:14:23.644Z,12.99
2018-06-25T07:16:03.438Z,12.97
2018-06-25T07:17:39.772Z,13.00
2018-06-25T07:19:15.061Z,13.24
2018-06-25T07:20:52.058Z,13.14
2018-06-25T07:22:27.153Z,13.04
2018-06-25T07:24:02.412Z,12.91
2018-06-25T07:25:37.588Z,13.00
2018-06-25T07:27:15.126Z,13.03
2018-06-25T07:28:54.027Z,13.02
2018-06-25T07:30:31.261Z,12.98
2018-06-25T07:32:06.111Z,12.86
2018-06-25T07:33:43.765Z,12.93
2018-06-25T07:35:19.772Z,12.99
2018-06-25T07:36:54.973Z,12.85
2018-06-25T07:38:34.216Z,12.85
2018-06-25T07:40:11.285Z,12.78
2018-06-25T07:41:51.427Z,12.83
2018-06-25T07:43:26.482Z,12.88
2018-06-25T07:45:03.969Z,12.96
2018-06-25T07:46:42.413Z,13.20
2018-06-25T07:48:19.424Z,13.21
2018-06-25T07:49:54.917Z,13.36
2018-06-25T07:51:29.939Z,13.51
2018-06-25T07:53:08.317Z,13.48
2018-06-25T07:54:43.629Z,13.59
2018-06-25T07:56:19.364Z,13.81
2018-06-25T07:57:55.184Z,13.70
2018-06-25T07:59:31.576Z,13.48
2018-06-25T08:01:07.248Z,13.48
2018-06-25T08:02:43.864Z,13.60
2018-06-25T08:04:19.999Z,13.66
2018-06-25T08:05:57.032Z,13.69
2018-06-25T08:07:34.543Z,13.57
2018-06-25T08:09:11.371Z,13.70
2018-06-25T08:10:46.709Z,13.58
2018-06-25T08:12:24.091Z,13.37
2018-06-25T08:14:01.045Z,13.11
2018-06-25T08:15:36.357Z,12.97
2018-06-25T08:17:11.477Z,13.12
2018-06-25T08:18:47.166Z,13.23
2018-06-25T08:20:22.694Z,13.19
2018-06-25T08:21:57.933Z,13.15
2018-06-25T08:23:34.312Z,13.23
2018-06-25T08:25:10.639Z,13.10
2018-06-25T08:26:46.496Z,13.12
2018-06-25T08:28:23.308Z,13.26
2018-06-25T08:29:58.592Z,13.37
2018-06-25T08:31:34.302Z,13.33
2018-06-25T08:33:09.889Z,13.41
2018-06-25T08:34:45.068Z,13.44
2018-06-25T08:36:20.464Z,13.12
2018-06-25T08:37:56.073Z,13.06
2018-06-25T08:39:31.440Z,13.07
2018-06-25T08:41:07.820Z,13.04
2018-06-25T08:42:43.118Z,13.20
2018-06-25T08:44:19.562Z,13.22
2018-06-25T08:45:56.439Z,13.53
2018-06-25T08:47:37.557Z,13.74
2018-06-25T08:49:13.120Z,14.30
2018-06-25T08:50:48.505Z,14.35
2018-06-25T08:52:23.689Z,14.35
2018-06-25T08:53:59.526Z,14.16
2018-06-25T08:55:35.754Z,14.47
2018-06-25T08:57:11.168Z,14.40
2018-06-25T08:58:46.211Z,14.44
2018-06-25T09:00:22.504Z,14.51
2018-06-25T09:01:58.168Z,14.29
2018-06-25T09:03:34.822Z,14.24
2018-06-25T09:05:11.625Z,13.93
2018-06-25T09:06:47.716Z,13.88
2018-06-25T09:08:22.870Z,13.79
2018-06-25T09:10:00.627Z,13.67
2018-06-25T09:11:35.867Z,13.97
2018-06-25T09:13:12.388Z,14.34
2018-06-25T09:14:49.246Z,14.53
2018-06-25T09:16:25.295Z,15.03
2018-06-25T09:18:01.047Z,15.25
2018-06-25T09:19:38.721Z,15.45
2018-06-25T09:21:13.418Z,15.65
2018-06-25T09:22:54.279Z,15.48
2018-06-25T09:24:32.224Z,15.59
2018-06-25T09:26:08.827Z,15.52
2018-06-25T09:27:51.323Z,15.63
2018-06-25T09:29:27.463Z,15.17
2018-06-25T09:31:02.558Z,15.17
2018-06-25T09:32:37.919Z,15.01
2018-06-25T09:34:19.376Z,15.03
2018-06-25T09:35:54.692Z,14.81
2018-06-25T09:37:29.898Z,14.83
2018-06-25T09:39:07.781Z,14.96
2018-06-25T09:40:43.655Z,14.79
2018-06-25T09:42:20.448Z,14.54
2018-06-25T09:43:56.897Z,14.61
2018-06-25T09:45:32.709Z,14.78
2018-06-25T09:47:12.429Z,14.56
2018-06-25T09:48:50.447Z,14.63
2018-06-25T09:50:27.380Z,14.85
2018-06-25T09:52:03.095Z,14.97
2018-06-25T09:53:38.747Z,14.93
2018-06-25T09:55:13.800Z,15.27
2018-06-25T09:56:50.588Z,15.62
2018-06-25T09:58:25.776Z,15.75
2018-06-25T10:00:04.287Z,16.33
2018-06-25T10:01:39.632Z,16.38
2018-06-25T10:03:17.845Z,16.48
2018-06-25T10:04:53.654Z,16.68
2018-06-25T10:06:29.420Z,16.57
2018-06-25T10:08:06.871Z,16.06
2018-06-25T10:09:43.566Z,15.68
2018-06-25T10:11:19.760Z,15.61
2018-06-25T10:12:56.096Z,15.72
2018-06-25T10:14:33.262Z,15.28
2018-06-25T10:16:10.395Z,15.23
2018-06-25T10:17:45.522Z,15.25
2018-06-25T10:19:20.603Z,15.58
2018-06-25T10:20:57.856Z,15.38
2018-06-25T10:22:34.262Z,15.40
2018-06-25T10:24:10.149Z,15.04
2018-06-25T10:25:45.440Z,14.99
2018-06-25T10:27:21.990Z,15.11
2018-06-25T10:28:57.471Z,14.91
2018-06-25T10:30:32.856Z,14.86
2018-06-25T10:32:08.957Z,15.10
2018-06-25T10:33:48.584Z,15.05
2018-06-25T10:35:25.653Z,15.24
2018-06-25T10:37:05.460Z,15.24
2018-06-25T10:38:43.382Z,15.53
2018-06-25T10:40:19.927Z,15.72
2018-06-25T10:41:58.775Z,15.83
2018-06-25T10:43:37.468Z,15.90
2018-06-25T10:45:17.907Z,16.03
2018-06-25T10:46:53.595Z,16.12
2018-06-25T10:48:30.631Z,16.12
2018-06-25T10:50:10.415Z,16.25
2018-06-25T10:51:48.167Z,16.69
2018-06-25T10:53:23.710Z,17.02
2018-06-25T10:55:03.491Z,17.17
2018-06-25T10:56:40.638Z,17.32
2018-06-25T10:58:17.888Z,17.78
2018-06-25T10:59:54.373Z,18.17
2018-06-25T11:01:29.914Z,17.81
2018-06-25T11:03:06.221Z,17.18
2018-06-25T11:04:43.834Z,16.97
2018-06-25T11:06:20.247Z,16.77
2018-06-25T11:07:58.159Z,16.54
2018-06-25T11:09:35.708Z,16.06
2018-06-25T11:11:11.745Z,16.03
2018-06-25T11:12:49.449Z,15.79
2018-06-25T11:14:27.097Z,15.82
2018-06-25T11:16:03.700Z,15.76
2018-06-25T11:17:39.426Z,15.94
2018-06-25T11:19:17.616Z,15.85
2018-06-25T11:20:53.970Z,15.71
2018-06-25T11:22:30.005Z,15.99
2018-06-25T11:24:12.131Z,16.34
2018-06-25T11:25:52.817Z,16.79
2018-06-25T11:27:30.095Z,17.01
2018-06-25T11:29:07.275Z,17.00
2018-06-25T11:30:46.690Z,16.66
2018-06-25T11:32:23.822Z,16.54
2018-06-25T11:33:59.317Z,16.28
2018-06-25T11:35:36.884Z,16.16
2018-06-25T11:37:15.803Z,16.25
2018-06-25T11:38:52.670Z,16.04
2018-06-25T11:41:31.764Z,15.75
2018-06-25T11:43:10.133Z,15.50
2018-06-25T11:44:44.942Z,15.03
2018-06-25T11:46:21.263Z,15.08
2018-06-25T11:47:58.297Z,15.08
2018-06-25T11:49:37.278Z,15.11
2018-06-25T11:51:15.818Z,14.95
2018-06-25T11:52:55.247Z,14.95
2018-06-25T11:54:31.413Z,14.89
2018-06-25T11:56:08.154Z,14.68
2018-06-25T11:57:46.398Z,14.62
2018-06-25T11:59:22.387Z,14.74
2018-06-25T12:00:59.800Z,14.91
2018-06-25T12:02:37.962Z,14.92
2018-06-25T12:04:14.537Z,15.10
2018-06-25T12:05:49.812Z,15.16
2018-06-25T12:07:27.818Z,15.05
2018-06-25T12:09:04.740Z,15.07
2018-06-25T12:10:41.767Z,15.23
2018-06-25T12:12:18.765Z,15.39
2018-06-25T12:13:54.479Z,15.37
2018-06-25T12:15:32.909Z,15.36
2018-06-25T12:17:11.640Z,15.46
2018-06-25T12:18:48.350Z,15.42
2018-06-25T12:20:25.701Z,15.49
2018-06-25T12:22:02.296Z,15.41
2018-06-25T12:25:14.980Z,15.39
2018-06-25T12:26:52.617Z,15.34
2018-06-25T12:28:28.589Z,15.25
2018-06-25T12:30:10.131Z,15.36
2018-06-25T12:31:46.454Z,15.57
2018-06-25T12:33:21.304Z,15.71
2018-06-25T12:34:58.742Z,15.73
2018-06-25T12:36:33.879Z,15.60
2018-06-25T12:38:11.795Z,15.60
2018-06-25T12:39:50.257Z,15.89
2018-06-25T12:41:33.027Z,16.13
2018-06-25T12:43:11.050Z,15.68
2018-06-25T12:44:46.576Z,15.76
2018-06-25T12:46:23.345Z,15.92
2018-06-25T12:48:00.259Z,15.73
2018-06-25T12:49:35.490Z,15.69
2018-06-25T12:51:14.625Z,15.99
2018-06-25T12:52:50.636Z,16.03
2018-06-25T12:54:27.500Z,16.29
2018-06-25T12:56:04.006Z,16.61
2018-06-25T12:57:40.025Z,16.60
2018-06-25T12:59:15.325Z,16.76
2018-06-25T13:00:52.270Z,16.73
2018-06-25T13:02:28.819Z,16.97
2018-06-25T13:04:04.191Z,16.97
2018-06-25T13:05:40.124Z,16.88
2018-06-25T13:07:16.204Z,17.08
2018-06-25T13:08:53.612Z,17.44
2018-06-25T13:10:31.337Z,17.86
2018-06-25T13:12:21.312Z,17.97
2018-06-25T13:13:58.845Z,17.64
2018-06-25T13:15:38.821Z,17.46
2018-06-25T13:17:16.244Z,17.49
2018-06-25T13:18:53.867Z,17.70
2018-06-25T13:20:29.329Z,17.42
2018-06-25T13:22:06.900Z,17.48
2018-06-25T13:23:41.988Z,17.42
2018-06-25T13:25:19.600Z,17.73
2018-06-25T13:26:54.727Z,18.11
2018-06-25T13:28:33.211Z,18.13
2018-06-25T13:30:17.575Z,18.50
2018-06-25T13:32:23.084Z,18.81
2018-06-25T13:34:02.698Z,19.37
2018-06-25T13:35:39.159Z,18.43
2018-06-25T13:37:15.247Z,18.99
2018-06-25T13:38:52.623Z,19.24
2018-06-25T13:40:28.841Z,19.35
2018-06-25T13:42:07.815Z,19.10
2018-06-25T13:43:44.110Z,19.40
2018-06-25T13:45:19.832Z,19.08
2018-06-25T13:46:56.339Z,19.28
2018-06-25T13:48:33.369Z,18.97
2018-06-25T13:50:11.023Z,19.03
2018-06-25T13:51:49.403Z,19.15
2018-06-25T13:53:29.568Z,19.10
2018-06-25T13:55:07.984Z,19.10
2018-06-25T13:57:06.179Z,18.73
2018-06-25T13:58:57.298Z,18.55
2018-06-25T14:01:05.858Z,18.53
2018-06-25T14:02:47.485Z,17.92
2018-06-25T14:04:33.014Z,17.65
2018-06-25T14:06:13.152Z,17.33
2018-06-25T14:07:50.075Z,17.25
2018-06-25T14:09:25.910Z,17.32
2018-06-25T14:11:02.577Z,17.16
2018-06-25T14:12:39.366Z,17.21
2018-06-25T14:14:19.614Z,17.38
2018-06-25T14:15:56.127Z,17.49
2018-06-25T14:17:34.966Z,17.73
2018-06-25T14:19:16.000Z,17.99
2018-06-25T14:21:00.684Z,18.30
2018-06-25T14:22:41.594Z,18.62
2018-06-25T14:24:22.111Z,19.13
2018-06-25T14:26:04.948Z,19.11
2018-06-25T14:27:46.344Z,19.44
2018-06-25T14:29:28.000Z,19.52
2018-06-25T14:31:12.831Z,19.05
2018-06-25T14:32:53.090Z,18.99
2018-06-25T14:34:28.948Z,18.71
2018-06-25T14:36:06.589Z,18.75
2018-06-25T14:37:43.651Z,18.56
2018-06-25T14:39:19.864Z,18.29
2018-06-25T14:40:56.292Z,18.30
2018-06-25T14:42:33.651Z,18.12
2018-06-25T14:44:11.749Z,17.80
2018-06-25T14:45:51.930Z,18.07
2018-06-25T14:47:28.744Z,18.35
2018-06-25T14:49:05.719Z,18.44
2018-06-25T14:50:43.155Z,18.60
2018-06-25T14:52:26.824Z,18.39
2018-06-25T14:54:06.039Z,18.34
2018-06-25T14:55:48.016Z,18.60
2018-06-25T14:57:25.179Z,18.26
2018-06-25T14:59:03.200Z,18.06
2018-06-25T15:00:41.051Z,18.08
2018-06-25T15:02:27.976Z,17.87
2018-06-25T15:04:07.358Z,17.61
2018-06-25T15:05:56.847Z,17.32
2018-06-25T15:07:41.232Z,17.43
2018-06-25T15:09:19.298Z,17.33
2018-06-25T15:11:09.619Z,17.28
2018-06-25T15:12:49.757Z,17.26
2018-06-25T15:14:28.881Z,17.43
2018-06-25T15:16:05.264Z,17.58
2018-06-25T15:17:40.433Z,17.86
2018-06-25T15:19:23.749Z,18.22
2018-06-25T15:20:59.371Z,18.74
2018-06-25T15:22:34.600Z,19.11
2018-06-25T15:24:13.079Z,19.25
2018-06-25T15:25:48.905Z,19.17
2018-06-25T15:27:24.856Z,19.68
2018-06-25T15:29:01.823Z,19.77
2018-06-25T15:30:39.080Z,19.70
2018-06-25T15:32:15.969Z,19.28
2018-06-25T15:33:55.386Z,19.24
2018-06-25T15:35:32.485Z,19.60
2018-06-25T15:37:09.993Z,19.52
2018-06-25T15:38:46.469Z,19.84
2018-06-25T15:40:21.688Z,19.27
2018-06-25T15:41:56.929Z,18.99
2018-06-25T15:43:33.688Z,18.97
2018-06-25T15:45:14.248Z,18.65
2018-06-25T15:46:50.376Z,18.53
2018-06-25T15:48:25.934Z,18.43
2018-06-25T15:50:03.595Z,18.28
2018-06-25T15:51:39.789Z,18.77
2018-06-25T15:53:16.773Z,18.90
2018-06-25T15:54:51.831Z,18.70
2018-06-25T15:56:27.570Z,18.78
2018-06-25T15:58:03.059Z,19.04
2018-06-25T15:59:39.104Z,19.72
2018-06-25T16:01:14.272Z,20.28
2018-06-25T16:02:49.834Z,20.16
2018-06-25T16:04:26.640Z,20.80
2018-06-25T16:06:02.623Z,20.26
2018-06-25T16:07:37.828Z,20.48
2018-06-25T16:09:17.562Z,20.46
2018-06-25T16:10:53.511Z,20.27
2018-06-25T16:12:30.119Z,19.98
2018-06-25T16:14:06.500Z,19.85
2018-06-25T16:15:42.205Z,20.12
2018-06-25T16:17:17.367Z,20.51
2018-06-25T16:18:54.909Z,20.21
2018-06-25T16:20:31.829Z,20.41
2018-06-25T16:22:08.991Z,20.66
2018-06-25T16:23:46.897Z,20.83
2018-06-25T16:25:26.385Z,21.01
2018-06-25T16:27:05.376Z,21.15
2018-06-25T16:28:46.449Z,21.18
2018-06-25T16:30:24.233Z,21.35
2018-06-25T16:32:12.774Z,21.42
2018-06-25T16:33:57.719Z,21.77
2018-06-25T16:35:37.353Z,21.72
2018-06-25T16:37:18.173Z,20.98
2018-06-25T16:38:54.258Z,20.53
2018-06-25T16:40:35.995Z,20.07
2018-06-25T16:42:14.288Z,19.78
2018-06-25T16:43:49.548Z,19.66
2018-06-25T16:45:30.096Z,19.72
2018-06-25T16:47:06.897Z,19.39
2018-06-25T16:48:43.769Z,19.58
2018-06-25T16:50:19.272Z,19.61
2018-06-25T16:51:56.617Z,20.14
2018-06-25T16:53:37.833Z,20.19
2018-06-25T16:55:14.566Z,20.43
2018-06-25T16:57:01.804Z,20.45
2018-06-25T16:58:37.302Z,20.52
2018-06-25T17:00:17.969Z,20.16
2018-06-25T17:01:56.011Z,19.99
2018-06-25T17:03:34.074Z,19.98
2018-06-25T17:05:10.226Z,20.08
2018-06-25T17:06:53.206Z,20.01
2018-06-25T17:08:30.124Z,19.95
2018-06-25T17:10:07.348Z,19.74
2018-06-25T17:11:44.870Z,19.83
2018-06-25T17:13:20.343Z,19.74
2018-06-25T17:14:57.334Z,19.74
2018-06-25T17:16:38.477Z,20.02
2018-06-25T17:18:16.875Z,19.90
2018-06-25T17:19:52.514Z,19.88
2018-06-25T17:21:34.918Z,19.76
2018-06-25T17:23:11.272Z,20.02
2018-06-25T17:25:00.560Z,20.02
2018-06-25T17:26:38.131Z,19.87
2018-06-25T17:28:28.671Z,20.14
2018-06-25T17:30:16.102Z,20.33
2018-06-25T17:33:49.124Z,19.86
2018-06-25T17:35:40.703Z,19.60
2018-06-25T17:37:22.953Z,19.64
2018-06-25T17:39:03.039Z,19.56
2018-06-25T17:40:41.535Z,19.64
2018-06-25T17:42:20.144Z,19.45
2018-06-25T17:43:59.182Z,19.62
2018-06-25T17:45:45.342Z,19.95
2018-06-25T17:49:13.753Z,19.47
2018-06-25T17:50:53.317Z,19.19
2018-06-25T17:52:30.899Z,19.45
2018-06-25T17:54:11.321Z,19.27
2018-06-25T17:55:47.534Z,19.37
2018-06-25T17:57:25.295Z,19.19
2018-06-25T17:59:01.274Z,19.18
2018-06-25T18:00:47.985Z,18.92
2018-06-25T18:02:27.188Z,19.00
2018-06-25T18:04:11.935Z,19.10
2018-06-25T18:14:55.688Z,18.79
2018-06-25T18:16:34.191Z,19.02
2018-06-25T18:18:24.830Z,19.28
2018-06-25T18:20:10.375Z,19.38
2018-06-25T18:21:51.351Z,19.20
2018-06-25T18:23:39.929Z,19.34
2018-06-25T18:25:35.549Z,19.50
2018-06-25T18:27:16.649Z,19.50
2018-06-25T18:28:56.454Z,19.50
2018-06-25T18:30:52.197Z,19.49
2018-06-25T18:32:32.832Z,19.16
2018-06-25T18:34:16.588Z,18.85
2018-06-25T18:35:57.796Z,18.91
2018-06-25T18:37:34.706Z,18.78
2018-06-25T18:39:16.508Z,18.72
2018-06-25T18:40:56.209Z,18.51
2018-06-25T18:48:08.418Z,18.63
2018-06-25T18:49:46.744Z,18.76
2018-06-25T18:51:24.381Z,18.63
2018-06-25T18:53:06.917Z,18.45
2018-06-25T18:54:43.258Z,18.43
2018-06-25T18:56:21.598Z,18.29
2018-06-25T18:57:57.445Z,18.37
2018-06-25T18:59:45.590Z,18.40
2018-06-25T19:01:23.785Z,18.32
2018-06-25T19:03:03.531Z,18.20
2018-06-25T19:04:48.476Z,18.10
2018-06-25T19:06:32.738Z,17.95
2018-06-25T19:08:12.494Z,17.78
2018-06-25T19:09:58.724Z,17.78
2018-06-25T19:11:39.637Z,17.63
2018-06-25T19:13:23.780Z,17.56
2018-06-25T19:15:10.498Z,17.55
2018-06-25T19:18:30.330Z,17.39
2018-06-25T19:20:07.402Z,17.24
2018-06-25T19:21:49.182Z,17.05
2018-06-25T19:23:26.886Z,16.90
2018-06-25T19:25:18.708Z,16.70
2018-06-25T19:26:57.644Z,16.54
2018-06-25T19:28:36.352Z,16.39
2018-06-25T19:30:13.438Z,16.23
2018-06-25T19:31:52.586Z,16.10
2018-06-25T19:33:28.921Z,15.92
2018-06-25T19:35:04.535Z,15.80
2018-06-25T19:36:41.103Z,15.64
2018-06-25T19:38:19.010Z,15.57
2018-06-25T19:39:57.271Z,15.47
2018-06-25T19:41:35.134Z,15.28
2018-06-25T19:43:11.202Z,15.12
2018-06-25T19:44:48.431Z,14.97
2018-06-25T19:46:25.809Z,14.90
2018-06-25T19:48:09.769Z,14.75
2018-06-25T19:49:53.677Z,14.64
2018-06-25T19:51:32.591Z,14.61
2018-06-25T19:53:13.874Z,14.53
2018-06-25T19:54:57.666Z,14.41
2018-06-25T19:56:47.292Z,14.31
2018-06-25T19:58:26.451Z,14.24
2018-06-25T20:00:10.449Z,14.09
2018-06-25T20:01:49.205Z,13.91
2018-06-25T20:03:34.460Z,13.82
2018-06-25T20:05:15.141Z,13.76
2018-06-25T20:06:50.268Z,13.65
2018-06-25T20:08:26.822Z,13.56
2018-06-25T20:10:04.367Z,13.52
2018-06-25T20:11:46.671Z,13.42
2018-06-25T20:13:29.525Z,13.35
2018-06-25T20:15:22.592Z,13.26
2018-06-25T20:17:05.362Z,13.16
2018-06-25T20:18:46.607Z,13.17
2018-06-25T20:20:29.012Z,13.11
2018-06-25T20:22:07.601Z,13.01
2018-06-25T20:23:47.024Z,13.05
2018-06-25T20:25:25.130Z,13.04
2018-06-25T20:27:00.203Z,12.99
2018-06-25T20:28:37.272Z,12.94
2018-06-25T20:30:17.352Z,12.88
2018-06-25T20:31:55.942Z,12.79
2018-06-25T20:33:37.697Z,12.69
2018-06-25T20:41:18.269Z,12.67
2018-06-25T20:43:02.266Z,12.35
2018-06-25T20:44:43.749Z,12.24
2018-06-25T20:46:23.341Z,12.18
2018-06-25T20:48:03.428Z,12.07
2018-06-25T20:49:39.684Z,12.03
2018-06-25T20:55:03.581Z,12.03
2018-06-25T20:56:43.692Z,11.98
2018-06-25T20:58:21.463Z,11.99
2018-06-25T21:00:01.972Z,12.02
2018-06-25T21:01:39.974Z,12.03
2018-06-25T21:03:17.832Z,12.03
2018-06-25T21:04:56.253Z,12.05
2018-06-25T21:06:34.441Z,12.01
2018-06-25T21:08:10.809Z,11.98
2018-06-25T21:09:51.637Z,12.01
2018-06-25T21:11:37.581Z,12.00
2018-06-25T21:13:14.089Z,12.03
2018-06-25T21:14:51.114Z,11.96
2018-06-25T21:16:27.360Z,11.89
2018-06-25T21:18:06.315Z,11.81
2018-06-25T21:19:43.324Z,11.76
2018-06-25T21:21:19.381Z,11.70
2018-06-25T21:23:00.226Z,11.62
2018-06-25T21:24:48.761Z,11.58
2018-06-25T21:26:26.342Z,11.54
2018-06-25T21:28:08.068Z,11.54
2018-06-25T21:29:46.811Z,11.47
2018-06-25T21:31:23.196Z,11.42
2018-06-25T21:33:00.567Z,11.39
2018-06-25T21:34:39.808Z,11.38